Time;durP1;ratioP1;P1;durP2;ratioP2;P2;SDS_P1;SDS_P2;PMS_P1;PMS_P2;Temp;Humidity;BMP_temperature;BMP_pressure;BME280_temperature;BME280_humidity;BME280_pressure;Samples;Min_cycle;Max_cycle;Signal;HPM_P1;HPM_P2
2022/07/28 00:02:07;;;;;;;;;2.00;2.00;;;;;20.40;40.59;100980.59;5087134;27;47077;-63
2022/07/28 00:04:33;;;;;;;;;5.00;3.00;;;;;20.35;40.37;100971.19;5096226;27;45307;-64
2022/07/28 00:06:59;;;;;;;;;2.33;2.33;;;;;20.33;40.69;100968.66;5096608;27;45290;-64
2022/07/28 00:09:25;;;;;;;;;1.00;1.00;;;;;20.32;40.54;100962.38;5097272;27;45443;-65
2022/07/28 00:11:50;;;;;;;;;2.67;2.67;;;;;20.26;40.66;100951.28;5096927;27;45274;-64
2022/07/28 00:14:16;;;;;;;;;2.00;2.00;;;;;20.26;40.62;100956.69;5095697;27;45316;-64
2022/07/28 00:16:41;;;;;;;;;3.00;3.00;;;;;20.20;40.93;100958.09;5096571;27;45240;-63
2022/07/28 00:19:07;;;;;;;;;3.00;1.67;;;;;20.20;40.83;100965.34;5096654;27;45444;-64
2022/07/28 00:21:33;;;;;;;;;3.00;3.00;;;;;20.22;40.73;100966.06;5096293;27;46232;-63
2022/07/28 00:23:58;;;;;;;;;3.00;3.00;;;;;20.21;41.07;100964.34;5096301;27;45411;-63
2022/07/28 00:26:23;;;;;;;;;2.67;2.67;;;;;20.16;40.99;100945.00;5095474;27;46795;-64
2022/07/28 00:28:49;;;;;;;;;3.00;2.00;;;;;20.20;40.72;100944.59;5096562;27;45475;-64
2022/07/28 00:31:15;;;;;;;;;3.00;3.00;;;;;20.14;41.09;100936.19;5078005;27;46359;-63
2022/07/28 00:33:40;;;;;;;;;2.67;2.67;;;;;20.21;40.82;100951.72;5077655;27;45370;-64
2022/07/28 00:36:08;;;;;;;;;3.00;3.00;;;;;20.18;41.00;100932.19;5099759;27;45441;-64
2022/07/28 00:38:34;;;;;;;;;2.00;2.00;;;;;20.15;40.73;100929.78;5099077;27;45425;-65
2022/07/28 00:41:12;;;;;;;;;4.00;2.00;;;;;20.12;41.21;100928.22;5099549;27;45755;-63
2022/07/28 00:43:43;;;;;;;;;2.00;2.00;;;;;20.06;41.26;100922.53;5099315;27;45461;-63
2022/07/28 00:46:08;;;;;;;;;3.00;2.00;;;;;20.08;41.39;100936.75;5099545;27;45417;-64
2022/07/28 00:48:43;;;;;;;;;2.00;2.00;;;;;20.01;41.41;100926.50;5099254;27;45198;-64
2022/07/28 00:51:09;;;;;;;;;4.00;3.00;;;;;19.98;41.02;100917.81;5063509;28;47977;-65
2022/07/28 00:53:39;;;;;;;;;2.00;2.00;;;;;19.98;41.83;100925.94;5078804;28;45298;-65
2022/07/28 00:56:05;;;;;;;;;1.00;1.00;;;;;19.94;41.85;100919.97;5077781;28;45377;-64
2022/07/28 00:58:30;;;;;;;;;2.00;2.00;;;;;19.94;41.73;100925.34;5078891;28;45601;-64
2022/07/28 01:00:56;;;;;;;;;2.00;2.00;;;;;19.90;41.74;100926.59;5088042;27;45818;-62
2022/07/28 01:03:23;;;;;;;;;2.00;2.00;;;;;19.85;42.05;100915.38;5096908;27;45514;-64
2022/07/28 01:05:59;;;;;;;;;3.00;1.33;;;;;19.83;41.63;100916.50;5081793;27;45369;-64
2022/07/28 01:08:51;;;;;;;;;2.33;2.33;;;;;19.83;41.79;100911.13;5099378;27;45355;-64
2022/07/28 01:11:25;;;;;;;;;1.67;1.67;;;;;19.82;41.81;100904.88;5098902;27;45440;-65
2022/07/28 01:14:06;;;;;;;;;2.00;2.00;;;;;19.76;42.22;100908.09;5098414;27;45431;-64
2022/07/28 01:16:37;;;;;;;;;1.67;1.67;;;;;19.64;42.03;100895.69;5099139;27;45357;-63
2022/07/28 01:19:35;;;;;;;;;2.67;1.00;;;;;19.66;42.13;100904.50;5064874;27;45386;-64
2022/07/28 01:22:03;;;;;;;;;2.00;2.00;;;;;19.67;42.12;100906.25;5081821;27;48322;-64
2022/07/28 01:24:32;;;;;;;;;4.00;2.33;;;;;19.66;42.26;100901.81;5098702;27;45408;-64
2022/07/28 01:27:09;;;;;;;;;2.00;2.00;;;;;19.66;42.15;100899.13;5099036;27;45729;-63
2022/07/28 01:29:56;;;;;;;;;4.00;2.33;;;;;19.66;42.18;100904.50;5080076;27;45643;-64
2022/07/28 01:32:30;;;;;;;;;1.67;1.67;;;;;19.61;42.34;100904.06;5099110;27;45370;-64
2022/07/28 01:35:13;;;;;;;;;3.67;3.00;;;;;19.62;42.48;100912.03;5098622;27;45347;-64
2022/07/28 01:37:53;;;;;;;;;2.00;2.00;;;;;19.64;42.40;100895.69;5097512;27;45425;-64
2022/07/28 01:40:24;;;;;;;;;5.00;3.67;;;;;19.63;42.80;100899.41;5080878;27;45448;-64
2022/07/28 01:42:53;;;;;;;;;3.00;3.00;;;;;19.63;42.56;100899.41;5098488;27;46491;-65
2022/07/28 01:45:20;;;;;;;;;2.00;2.00;;;;;19.63;42.63;100905.63;5097014;27;45402;-65
2022/07/28 01:47:47;;;;;;;;;2.33;2.33;;;;;19.57;42.88;100894.56;5098565;27;45313;-65
2022/07/28 01:50:16;;;;;;;;;3.67;3.00;;;;;19.58;42.70;100893.56;5098587;27;45247;-65
2022/07/28 01:52:44;;;;;;;;;4.00;2.00;;;;;19.54;42.70;100892.97;5098145;27;47461;-65
2022/07/28 01:55:14;;;;;;;;;4.33;2.00;;;;;19.54;42.90;100894.81;5097662;27;45477;-66
2022/07/28 01:57:41;;;;;;;;;4.00;2.00;;;;;19.44;42.96;100890.22;5098728;27;45302;-65
2022/07/28 02:00:09;;;;;;;;;3.00;3.00;;;;;19.39;42.88;100881.66;5094888;27;45360;-66
2022/07/28 02:02:36;;;;;;;;;3.00;1.67;;;;;19.45;42.90;100897.31;5077931;28;45583;-64
2022/07/28 02:05:06;;;;;;;;;3.00;3.00;;;;;19.43;43.03;100888.50;5082747;27;45315;-64
2022/07/28 02:07:32;;;;;;;;;3.33;3.33;;;;;19.43;43.06;100893.06;5098316;27;45322;-64
2022/07/28 02:10:00;;;;;;;;;2.67;2.67;;;;;19.36;43.37;100891.88;5080198;27;45608;-63
2022/07/28 02:12:27;;;;;;;;;2.00;2.00;;;;;19.25;43.65;100884.72;5096171;27;46331;-63
2022/07/28 02:14:54;;;;;;;;;3.00;2.00;;;;;19.23;43.92;100886.69;5096342;27;45418;-65
2022/07/28 02:17:24;;;;;;;;;2.67;2.67;;;;;19.17;43.84;100879.16;5098149;27;45287;-65
2022/07/28 02:19:51;;;;;;;;;3.00;3.00;;;;;19.17;43.52;100881.00;5098035;27;45349;-65
2022/07/28 02:22:17;;;;;;;;;2.33;2.33;;;;;19.18;44.27;100878.19;5079617;27;45461;-66
2022/07/28 02:24:44;;;;;;;;;4.00;3.00;;;;;19.16;43.78;100872.06;5078906;27;45618;-63
2022/07/28 02:27:21;;;;;;;;;3.00;3.00;;;;;19.12;43.99;100876.00;5098159;27;45264;-63
2022/07/28 02:29:56;;;;;;;;;3.67;3.00;;;;;19.08;44.26;100877.25;5098563;27;45343;-64
2022/07/28 02:32:36;;;;;;;;;5.00;3.00;;;;;19.04;44.25;100875.84;5098276;27;46532;-64
2022/07/28 02:35:07;;;;;;;;;4.00;3.00;;;;;18.99;44.31;100869.97;5096867;27;45593;-64
2022/07/28 02:37:37;;;;;;;;;4.00;2.00;;;;;18.91;44.38;100856.31;5097927;27;45389;-63
2022/07/28 02:40:04;;;;;;;;;2.33;2.33;;;;;18.93;44.57;100857.91;5098032;27;45440;-64
2022/07/28 02:42:34;;;;;;;;;3.00;3.00;;;;;19.05;44.21;100866.75;5078778;27;48202;-63
2022/07/28 02:45:02;;;;;;;;;1.33;1.33;;;;;19.07;44.12;100860.25;5096222;27;45452;-64
2022/07/28 02:47:33;;;;;;;;;3.00;2.00;;;;;19.08;44.22;100855.69;5096822;27;45251;-64
2022/07/28 02:50:01;;;;;;;;;3.00;3.00;;;;;19.06;44.03;100847.75;5079363;27;45409;-64
2022/07/28 02:52:28;;;;;;;;;4.00;4.00;;;;;19.12;43.86;100859.81;5097896;27;46984;-65
2022/07/28 02:54:56;;;;;;;;;3.00;3.00;;;;;19.14;44.10;100860.53;5096755;27;45482;-63
2022/07/28 02:57:24;;;;;;;;;2.00;2.00;;;;;19.11;44.49;100856.28;5096878;27;45224;-64
2022/07/28 02:59:52;;;;;;;;;4.00;2.33;;;;;19.19;44.09;100857.47;5078307;27;45611;-65
2022/07/28 03:02:20;;;;;;;;;3.67;3.67;;;;;19.13;44.33;100862.38;5077120;28;45540;-65
2022/07/28 03:04:57;;;;;;;;;3.67;3.67;;;;;19.07;44.14;100852.16;5077202;27;45285;-65
2022/07/28 03:07:34;;;;;;;;;2.33;2.33;;;;;19.10;44.18;100859.09;5097579;27;45346;-65
2022/07/28 03:10:01;;;;;;;;;2.67;2.33;;;;;19.04;44.23;100852.44;5097610;27;45328;-64
2022/07/28 03:12:26;;;;;;;;;2.33;2.00;;;;;19.08;44.25;100861.09;5097672;27;45355;-65
2022/07/28 03:14:52;;;;;;;;;1.67;1.67;;;;;19.06;44.41;100853.13;5096488;27;45473;-66
2022/07/28 03:17:18;;;;;;;;;2.67;2.00;;;;;19.01;44.59;100844.63;5097761;27;45418;-64
2022/07/28 03:19:44;;;;;;;;;2.00;2.00;;;;;19.02;44.29;100862.50;5097701;27;45355;-65
2022/07/28 03:22:10;;;;;;;;;2.00;2.00;;;;;19.02;44.38;100869.72;5097080;27;45324;-64
2022/07/28 03:24:48;;;;;;;;;2.00;2.00;;;;;18.96;44.75;100868.41;5097095;27;45219;-64
2022/07/28 03:27:35;;;;;;;;;2.00;2.00;;;;;18.90;44.61;100860.88;5096965;27;45329;-63
2022/07/28 03:30:05;;;;;;;;;1.33;1.33;;;;;18.89;44.53;100867.25;5097251;27;45476;-63
2022/07/28 03:32:35;;;;;;;;;2.00;2.00;;;;;18.90;44.69;100862.69;5096627;27;46263;-64
2022/07/28 03:35:01;;;;;;;;;2.33;1.00;;;;;18.88;44.72;100848.47;5077939;27;45300;-63
2022/07/28 03:37:32;;;;;;;;;2.67;2.00;;;;;18.88;44.77;100852.06;5097517;27;45314;-64
2022/07/28 03:39:59;;;;;;;;;2.00;2.00;;;;;18.93;44.79;100848.97;5078921;27;45540;-65
2022/07/28 03:42:27;;;;;;;;;4.00;2.33;;;;;18.93;44.66;100840.88;5096969;27;46795;-66
2022/07/28 03:44:53;;;;;;;;;2.00;2.00;;;;;19.00;44.69;100852.81;5095099;27;45422;-64
2022/07/28 03:47:22;;;;;;;;;1.00;1.00;;;;;19.00;44.40;100853.66;5096687;27;45511;-66
2022/07/28 03:49:49;;;;;;;;;3.00;3.00;;;;;18.93;44.54;100848.97;5096783;27;45204;-65
2022/07/28 03:52:14;;;;;;;;;2.00;2.00;;;;;18.94;44.45;100848.81;5097220;27;46431;-65
2022/07/28 03:54:39;;;;;;;;;4.67;3.00;;;;;19.00;44.96;100855.50;5079313;27;45628;-65
2022/07/28 03:57:05;;;;;;;;;5.00;2.00;;;;;18.98;44.76;100855.63;5097504;27;45720;-65
2022/07/28 03:59:30;;;;;;;;;3.00;3.00;;;;;19.02;44.68;100856.25;5097229;27;45480;-64
2022/07/28 04:01:56;;;;;;;;;1.00;1.00;;;;;18.91;44.78;100835.63;5078406;27;45741;-65
2022/07/28 04:04:22;;;;;;;;;2.67;2.67;;;;;19.01;44.14;100858.09;5076359;28;45373;-63
2022/07/28 04:06:47;;;;;;;;;3.33;2.00;;;;;18.91;44.58;100842.84;5094733;27;46106;-64
2022/07/28 04:09:14;;;;;;;;;1.33;1.33;;;;;18.94;44.75;100850.66;5097572;27;45244;-64
2022/07/28 04:11:40;;;;;;;;;2.00;2.00;;;;;18.90;44.77;100858.16;5100186;27;46391;-66
2022/07/28 04:14:05;;;;;;;;;2.00;2.00;;;;;18.92;45.29;100860.72;5100066;27;45293;-65
2022/07/28 04:16:31;;;;;;;;;3.67;2.00;;;;;18.96;45.22;100862.16;5099513;27;45259;-65
2022/07/28 04:18:56;;;;;;;;;3.67;3.67;;;;;18.91;45.05;100851.78;5099961;27;45282;-66
2022/07/28 04:21:21;;;;;;;;;1.67;1.67;;;;;19.01;45.01;100858.09;5099994;27;45978;-65
2022/07/28 04:23:47;;;;;;;;;4.00;4.00;;;;;18.99;44.70;100857.34;5100133;27;45365;-65
2022/07/28 04:26:13;;;;;;;;;4.00;4.00;;;;;18.93;44.76;100857.91;5099458;27;45705;-66
2022/07/28 04:28:38;;;;;;;;;2.00;2.00;;;;;18.88;45.31;100859.25;5099991;27;45374;-66
2022/07/28 04:31:04;;;;;;;;;2.33;2.33;;;;;18.80;45.16;100846.47;5099806;27;45343;-65
2022/07/28 04:33:29;;;;;;;;;2.00;2.00;;;;;18.73;45.52;100850.66;5099861;27;45465;-64
2022/07/28 04:35:55;;;;;;;;;1.00;1.00;;;;;18.64;45.63;100844.25;5099300;27;45323;-65
2022/07/28 04:38:20;;;;;;;;;2.67;1.67;;;;;18.68;45.79;100843.00;5081915;27;45467;-65
2022/07/28 04:40:47;;;;;;;;;2.67;1.00;;;;;18.73;45.39;100848.81;5097881;27;46596;-65
2022/07/28 04:43:13;;;;;;;;;1.67;1.67;;;;;18.71;45.52;100847.25;5099633;27;45431;-64
2022/07/28 04:45:38;;;;;;;;;3.33;3.33;;;;;18.76;45.50;100842.34;5098991;27;45274;-64
2022/07/28 04:48:04;;;;;;;;;3.33;2.67;;;;;18.67;45.70;100841.28;5099832;27;45501;-64
2022/07/28 04:50:30;;;;;;;;;2.00;2.00;;;;;18.64;45.78;100840.69;5081760;27;45510;-64
2022/07/28 04:52:57;;;;;;;;;4.00;3.00;;;;;18.66;45.94;100844.13;5099233;27;45418;-63
2022/07/28 04:55:23;;;;;;;;;3.00;3.00;;;;;18.69;45.48;100850.09;5099024;27;46996;-68
2022/07/28 04:57:49;;;;;;;;;3.67;2.00;;;;;18.67;45.54;100846.66;5099839;27;45527;-64
2022/07/28 05:00:15;;;;;;;;;3.67;2.00;;;;;18.63;45.63;100839.81;5094862;27;45354;-65
2022/07/28 05:02:43;;;;;;;;;5.00;3.67;;;;;18.58;45.52;100833.94;5078818;28;45461;-65
2022/07/28 05:05:11;;;;;;;;;2.00;2.00;;;;;18.61;45.58;100841.75;5081383;27;45184;-65
2022/07/28 05:07:37;;;;;;;;;2.00;2.00;;;;;18.59;45.42;100830.25;5081556;27;45378;-64
2022/07/28 05:10:05;;;;;;;;;2.00;2.00;;;;;18.60;45.65;100836.50;5099385;27;45247;-65
2022/07/28 05:12:30;;;;;;;;;4.67;4.00;;;;;18.64;45.92;100849.63;5080968;27;45580;-66
2022/07/28 05:14:56;;;;;;;;;3.33;3.00;;;;;18.54;45.94;100844.13;5097807;27;45314;-64
2022/07/28 05:17:21;;;;;;;;;1.67;1.67;;;;;18.52;45.85;100843.41;5098512;27;45476;-66
2022/07/28 05:19:46;;;;;;;;;2.00;2.00;;;;;18.60;45.95;100845.44;5098432;27;45436;-65
2022/07/28 05:22:12;;;;;;;;;2.00;2.00;;;;;18.53;46.09;100838.88;5080717;27;45397;-65
2022/07/28 05:24:38;;;;;;;;;2.00;2.00;;;;;18.61;46.27;100855.22;5098929;27;45441;-64
2022/07/28 05:27:03;;;;;;;;;2.00;2.00;;;;;18.63;46.17;100842.50;5098907;27;45339;-64
2022/07/28 05:29:29;;;;;;;;;3.00;3.00;;;;;18.68;45.90;100845.69;5098864;27;46066;-65
2022/07/28 05:31:54;;;;;;;;;4.33;3.00;;;;;18.71;45.80;100844.56;5096319;27;45254;-66
2022/07/28 05:34:19;;;;;;;;;3.00;3.00;;;;;18.74;46.11;100842.44;5080596;27;45277;-66
2022/07/28 05:36:45;;;;;;;;;2.67;2.67;;;;;18.76;45.64;100843.19;5087179;27;45370;-66
2022/07/28 05:39:10;;;;;;;;;6.67;6.00;;;;;18.75;46.09;100838.78;5077779;27;46192;-64
2022/07/28 05:41:35;;;;;;;;;3.67;3.67;;;;;18.78;45.64;100838.53;5082041;27;45295;-65
2022/07/28 05:44:01;;;;;;;;;4.00;4.00;;;;;18.83;45.81;100844.34;5060661;28;45317;-67
2022/07/28 05:46:27;;;;;;;;;2.00;2.00;;;;;18.85;45.54;100855.00;5091615;27;45509;-67
2022/07/28 05:48:52;;;;;;;;;4.00;4.00;;;;;18.80;45.64;100851.84;5092569;27;46327;-65
2022/07/28 05:51:18;;;;;;;;;6.67;5.00;;;;;18.84;45.74;100853.28;5059983;28;45390;-65
2022/07/28 05:53:44;;;;;;;;;2.67;2.67;;;;;18.85;45.98;100850.47;5078147;28;45478;-65
2022/07/28 05:56:09;;;;;;;;;3.67;3.67;;;;;18.82;45.59;100833.72;5088011;27;45252;-64
2022/07/28 05:58:35;;;;;;;;;3.33;3.33;;;;;18.85;45.88;100834.28;5098453;27;47374;-65
2022/07/28 06:01:01;;;;;;;;;5.33;4.00;;;;;18.93;46.08;100832.78;5096773;27;45348;-66
2022/07/28 06:03:29;;;;;;;;;4.00;2.00;;;;;18.97;45.21;100837.75;5098652;27;45400;-64
2022/07/28 06:05:57;;;;;;;;;5.33;4.00;;;;;19.02;45.67;100848.16;5091792;27;45245;-66
2022/07/28 06:08:25;;;;;;;;;3.00;1.33;;;;;18.99;45.65;100829.53;5077507;28;47196;-65
2022/07/28 06:10:57;;;;;;;;;5.00;3.00;;;;;19.05;45.30;100850.59;5092845;27;45448;-66
2022/07/28 06:13:23;;;;;;;;;3.00;3.00;;;;;19.02;45.69;100857.09;5096991;27;45793;-64
2022/07/28 06:15:50;;;;;;;;;3.00;3.00;;;;;19.07;45.84;100854.00;5098383;27;45638;-63
2022/07/28 06:18:15;;;;;;;;;5.33;4.00;;;;;19.18;45.67;100845.81;5097844;27;45756;-63
2022/07/28 06:20:41;;;;;;;;;3.33;2.33;;;;;19.26;45.36;100848.69;5097948;27;45404;-63
2022/07/28 06:23:06;;;;;;;;;3.33;3.33;;;;;19.29;45.18;100858.38;5097403;27;45555;-63
2022/07/28 06:25:32;;;;;;;;;4.33;3.00;;;;;19.36;45.20;100851.41;5097286;27;45539;-62
2022/07/28 06:28:01;;;;;;;;;2.67;2.67;;;;;19.42;45.60;100849.03;5097406;27;45420;-63
2022/07/28 06:30:27;;;;;;;;;5.00;2.00;;;;;19.48;44.95;100841.38;5097979;27;45141;-64
2022/07/28 06:32:52;;;;;;;;;4.00;4.00;;;;;19.49;44.87;100856.56;5097360;27;45299;-62
2022/07/28 06:35:18;;;;;;;;;3.67;3.67;;;;;19.51;44.54;100847.34;5079146;27;45204;-64
2022/07/28 06:37:48;;;;;;;;;3.00;3.00;;;;;19.52;44.41;100845.50;5096928;27;46054;-63
2022/07/28 06:40:15;;;;;;;;;5.00;4.00;;;;;19.56;44.35;100849.69;5090107;27;45426;-63
2022/07/28 06:42:42;;;;;;;;;5.00;5.00;;;;;19.50;44.86;100842.94;5076354;28;45358;-60
2022/07/28 06:45:08;;;;;;;;;4.00;4.00;;;;;19.52;44.84;100848.19;5078720;27;45251;-60
2022/07/28 06:47:34;;;;;;;;;3.00;3.00;;;;;19.44;45.11;100830.03;5097414;27;45413;-62
2022/07/28 06:50:00;;;;;;;;;4.00;4.00;;;;;19.60;44.76;100845.72;5078141;27;45673;-61
2022/07/28 06:52:26;;;;;;;;;4.00;4.00;;;;;19.66;44.66;100847.84;5097646;27;45375;-64
2022/07/28 06:54:52;;;;;;;;;5.67;3.00;;;;;19.69;44.65;100850.28;5096522;27;45452;-60
2022/07/28 06:57:22;;;;;;;;;5.67;4.67;;;;;19.66;44.78;100846.03;5097158;27;47217;-61
2022/07/28 06:59:48;;;;;;;;;6.00;4.33;;;;;19.79;45.11;100859.25;5097395;27;45365;-60
2022/07/28 07:02:14;;;;;;;;;8.00;6.00;;;;;19.81;44.46;100848.34;5078914;27;45499;-61
2022/07/28 07:04:40;;;;;;;;;7.00;5.00;;;;;19.83;44.71;100854.44;5096492;27;45342;-61
2022/07/28 07:07:05;;;;;;;;;18.33;15.67;;;;;19.89;44.26;100854.72;5096736;27;45623;-61
2022/07/28 07:09:31;;;;;;;;;10.67;5.00;;;;;19.84;44.39;100840.81;5096738;27;45780;-62
2022/07/28 07:11:56;;;;;;;;;4.00;4.00;;;;;19.97;44.50;100857.59;5097146;27;45480;-61
2022/07/28 07:14:22;;;;;;;;;4.00;3.00;;;;;20.07;44.30;100856.75;5097149;27;45345;-62
2022/07/28 07:16:47;;;;;;;;;6.00;4.33;;;;;20.06;43.78;100863.16;5095568;27;46308;-61
2022/07/28 07:19:13;;;;;;;;;8.67;7.67;;;;;20.03;44.16;100851.59;5097079;27;45332;-63
2022/07/28 07:21:38;;;;;;;;;5.33;4.00;;;;;20.06;43.93;100857.75;5097601;27;45440;-61
2022/07/28 07:24:04;;;;;;;;;5.33;5.33;;;;;20.04;44.25;100865.97;5093430;27;45583;-63
2022/07/28 07:26:29;;;;;;;;;14.00;13.00;;;;;20.14;44.41;100863.28;5097080;27;45283;-62
2022/07/28 07:28:55;;;;;;;;;4.33;4.33;;;;;20.22;44.16;100858.03;5097002;27;45236;-62
2022/07/28 07:31:20;;;;;;;;;5.00;5.00;;;;;20.32;43.57;100856.19;5095764;27;45394;-62
2022/07/28 07:33:45;;;;;;;;;5.00;5.00;;;;;20.18;43.63;100845.78;5096326;27;45548;-62
2022/07/28 07:36:11;;;;;;;;;4.00;4.00;;;;;20.30;44.02;100856.31;5095289;27;45257;-62
2022/07/28 07:38:38;;;;;;;;;7.00;5.00;;;;;20.38;43.38;100863.72;5095427;27;49130;-63
2022/07/28 07:41:03;;;;;;;;;6.67;5.33;;;;;20.46;43.96;100855.78;5082329;27;45294;-62
2022/07/28 07:43:29;;;;;;;;;3.33;1.00;;;;;20.50;44.14;100842.84;5076480;28;45367;-63
2022/07/28 07:45:54;;;;;;;;;5.33;5.33;;;;;20.64;43.70;100857.75;5076496;28;45484;-61
2022/07/28 07:48:19;;;;;;;;;7.00;4.00;;;;;20.67;43.21;100835.84;5076051;27;45393;-61
2022/07/28 07:50:45;;;;;;;;;7.33;5.00;;;;;20.85;42.87;100850.34;5076694;28;45447;-63
2022/07/28 07:53:10;;;;;;;;;4.67;4.00;;;;;20.91;42.64;100855.13;5077076;28;45354;-60
2022/07/28 07:55:36;;;;;;;;;5.00;3.00;;;;;20.96;43.06;100849.28;5074623;28;46649;-62
2022/07/28 07:58:02;;;;;;;;;5.67;5.00;;;;;21.07;43.49;100858.06;5083594;27;45401;-61
2022/07/28 08:00:27;;;;;;;;;6.00;6.00;;;;;21.16;41.81;100849.09;5096423;27;45436;-61
2022/07/28 08:02:53;;;;;;;;;5.00;5.00;;;;;21.20;43.01;100852.34;5096370;27;45405;-62
2022/07/28 08:05:18;;;;;;;;;5.00;4.00;;;;;21.30;42.23;100849.63;5096131;27;46003;-62
2022/07/28 08:07:44;;;;;;;;;5.67;5.67;;;;;21.38;42.12;100853.31;5096549;27;45372;-61
2022/07/28 08:10:09;;;;;;;;;5.00;5.00;;;;;21.46;41.35;100847.13;5095605;27;45259;-63
2022/07/28 08:12:35;;;;;;;;;7.67;7.67;;;;;21.54;41.66;100852.66;5078507;27;45339;-61
2022/07/28 08:15:01;;;;;;;;;7.00;7.00;;;;;21.56;41.56;100831.72;5077875;27;45419;-62
2022/07/28 08:17:27;;;;;;;;;6.67;6.00;;;;;21.76;40.83;100836.00;5096562;27;45431;-63
2022/07/28 08:19:53;;;;;;;;;8.00;7.00;;;;;22.02;41.27;100840.69;5096799;27;45398;-61
2022/07/28 08:22:19;;;;;;;;;6.33;4.00;;;;;22.26;40.75;100832.78;5096207;27;45615;-62
2022/07/28 08:24:44;;;;;;;;;4.00;4.00;;;;;22.51;40.90;100842.00;5096579;27;46283;-64
2022/07/28 08:27:10;;;;;;;;;4.00;4.00;;;;;22.72;39.25;100838.09;5078259;27;45477;-63
2022/07/28 08:29:35;;;;;;;;;8.67;5.33;;;;;22.98;38.91;100832.72;5096686;27;45372;-62
2022/07/28 08:32:04;;;;;;;;;8.00;5.00;;;;;23.24;38.69;100834.38;5096668;27;45612;-62
2022/07/28 08:34:30;;;;;;;;;5.33;5.00;;;;;23.59;38.72;100831.69;5095328;27;45507;-65
2022/07/28 08:36:56;;;;;;;;;7.67;5.33;;;;;23.76;37.06;100828.00;5078033;27;45264;-60
2022/07/28 08:39:22;;;;;;;;;5.75;5.75;;;;;23.95;38.50;100824.97;5096138;27;45437;-62
2022/07/28 08:41:53;;;;;;;;;6.00;5.50;;;;;24.46;37.67;100822.16;5092891;27;45570;-62
2022/07/28 08:44:23;;;;;;;;;6.50;5.00;;;;;24.90;36.32;100834.38;5077335;27;45645;-62
2022/07/28 08:46:49;;;;;;;;;4.25;4.00;;;;;25.34;36.01;100824.91;5096068;27;45276;-62
2022/07/28 08:49:15;;;;;;;;;4.50;4.50;;;;;25.71;35.75;100830.56;5096080;27;45528;-63
2022/07/28 08:51:41;;;;;;;;;5.00;5.00;;;;;25.87;33.31;100829.59;5095553;27;45651;-62
2022/07/28 08:54:12;;;;;;;;;6.00;6.00;;;;;26.04;33.91;100822.16;5077675;27;45366;-63
2022/07/28 08:56:40;;;;;;;;;5.00;5.00;;;;;26.45;32.91;100814.56;5081226;27;45231;-62
2022/07/28 08:59:07;;;;;;;;;8.00;5.00;;;;;26.67;31.96;100821.00;5099423;27;45413;-62
2022/07/28 09:01:32;;;;;;;;;5.00;5.00;;;;;26.85;32.95;100810.59;5099404;27;45424;-63
2022/07/28 09:03:59;;;;;;;;;5.00;5.00;;;;;26.94;31.89;100814.06;5096940;27;47010;-63
2022/07/28 09:06:25;;;;;;;;;4.80;3.80;;;;;27.02;32.06;100822.22;5099051;27;45260;-62
2022/07/28 09:08:51;;;;;;;;;7.75;4.75;;;;;27.09;32.14;100827.78;5099321;27;45423;-63
2022/07/28 09:11:16;;;;;;;;;8.50;5.50;;;;;27.34;33.48;100807.31;5100096;27;45234;-62
2022/07/28 09:13:43;;;;;;;;;3.75;3.75;;;;;27.62;31.92;100812.94;5098030;27;46454;-63
2022/07/28 09:16:08;;;;;;;;;2.60;2.00;;;;;27.80;30.78;100809.81;5097829;27;45274;-63
2022/07/28 09:18:34;;;;;;;;;4.75;4.75;;;;;27.88;31.32;100802.34;5099164;27;45405;-64
2022/07/28 09:20:59;;;;;;;;;5.00;5.00;;;;;28.06;31.22;100804.63;5098947;27;45434;-63
2022/07/28 09:23:40;;;;;;;;;7.00;5.00;;;;;28.19;31.62;100806.66;5098988;27;46531;-63
2022/07/28 09:26:07;;;;;;;;;4.20;4.20;;;;;28.04;31.22;100809.47;5098916;27;45248;-62
2022/07/28 09:28:48;;;;;;;;;3.00;3.00;;;;;28.05;30.12;100811.16;5098214;27;45341;-63
2022/07/28 09:31:14;;;;;;;;;5.50;5.00;;;;;28.00;30.02;100808.16;5081550;27;45469;-62
2022/07/28 09:33:52;;;;;;;;;5.00;3.75;;;;;27.88;29.43;100812.44;5098396;27;45279;-61
2022/07/28 09:36:17;;;;;;;;;5.80;5.60;;;;;27.67;29.87;100806.94;5080738;27;45412;-63
2022/07/28 09:38:43;;;;;;;;;7.25;5.25;;;;;27.59;30.59;100819.63;5099043;27;45446;-62
2022/07/28 09:41:10;;;;;;;;;5.75;3.75;;;;;27.53;30.90;100798.53;5092216;27;45212;-68
2022/07/28 09:43:41;;;;;;;;;9.80;5.00;;;;;27.67;29.67;100804.19;5098872;27;45448;-64
2022/07/28 09:46:10;;;;;;;;;3.80;3.80;;;;;27.86;30.44;100801.69;5099087;27;45464;-63
2022/07/28 09:48:48;;;;;;;;;2.00;2.00;;;;;28.02;31.35;100803.34;5098422;27;45448;-63
2022/07/28 09:51:16;;;;;;;;;5.00;5.00;;;;;28.08;30.13;100802.56;5098660;27;45321;-62
2022/07/28 09:53:42;;;;;;;;;4.60;3.40;;;;;28.11;30.66;100796.69;5076559;27;47388;-62
2022/07/28 09:56:09;;;;;;;;;10.40;9.60;;;;;28.04;29.31;100784.84;5098553;27;45266;-62
2022/07/28 09:58:35;;;;;;;;;5.80;5.00;;;;;27.97;29.94;100789.38;5098272;27;45446;-62
2022/07/28 10:01:04;;;;;;;;;6.50;5.00;;;;;28.15;29.52;100791.69;5098924;27;45334;-63
2022/07/28 10:03:30;;;;;;;;;6.25;6.25;;;;;28.48;31.30;100794.75;5098193;27;45380;-62
2022/07/28 10:05:57;;;;;;;;;2.75;2.75;;;;;28.85;29.34;100784.50;5097545;27;45480;-65
2022/07/28 10:08:39;;;;;;;;;6.40;6.40;;;;;29.14;29.37;100787.00;5098706;27;45263;-62
2022/07/28 10:11:05;;;;;;;;;4.00;4.00;;;;;29.29;28.16;100786.88;5098291;27;45538;-63
2022/07/28 10:13:30;;;;;;;;;4.00;4.00;;;;;29.35;27.64;100783.31;5098116;27;46100;-64
2022/07/28 10:16:10;;;;;;;;;5.25;4.25;;;;;29.13;29.17;100788.06;5079984;27;45336;-63
2022/07/28 10:18:39;;;;;;;;;4.60;4.60;;;;;29.05;27.58;100791.81;5096952;27;45362;-63
2022/07/28 10:21:12;;;;;;;;;3.00;3.00;;;;;28.82;28.13;100787.63;5098424;27;45284;-64
2022/07/28 10:23:38;;;;;;;;;6.80;4.80;;;;;28.64;28.88;100791.69;5079333;27;45945;-63
2022/07/28 10:26:11;;;;;;;;;6.40;5.00;;;;;28.58;27.24;100783.47;5097804;27;45474;-65
2022/07/28 10:28:43;;;;;;;;;1.00;1.00;;;;;28.38;29.13;100786.00;5097992;27;45365;-63
2022/07/28 10:31:10;;;;;;;;;4.00;2.40;;;;;28.35;28.74;100768.13;5078652;27;45445;-63
2022/07/28 10:33:45;;;;;;;;;2.40;2.40;;;;;28.31;29.38;100775.03;5098170;27;46458;-65
2022/07/28 10:36:12;;;;;;;;;3.20;2.20;;;;;28.33;28.99;100778.41;5098140;27;45394;-63
2022/07/28 10:38:38;;;;;;;;;4.80;3.80;;;;;28.28;28.61;100769.97;5098206;27;45921;-62
2022/07/28 10:41:07;;;;;;;;;2.40;2.40;;;;;28.23;29.01;100766.91;5082832;27;45540;-64
2022/07/28 10:43:34;;;;;;;;;3.00;3.00;;;;;28.18;28.57;100770.25;5095913;27;46010;-63
2022/07/28 10:46:00;;;;;;;;;2.00;2.00;;;;;28.19;28.33;100787.50;5097744;27;45214;-63
2022/07/28 10:48:26;;;;;;;;;2.00;1.80;;;;;28.02;28.00;100767.81;5097356;27;45496;-63
2022/07/28 10:50:56;;;;;;;;;3.00;3.00;;;;;27.94;28.70;100773.38;5098201;27;45516;-63
2022/07/28 10:53:45;;;;;;;;;1.80;1.80;;;;;27.81;27.96;100763.16;5094710;27;46226;-63
2022/07/28 10:56:21;;;;;;;;;4.40;4.40;;;;;27.60;28.76;100771.28;5096759;27;45549;-63
2022/07/28 10:59:15;;;;;;;;;3.60;3.60;;;;;27.50;29.72;100779.81;5078627;27;45437;-63
2022/07/28 11:01:41;;;;;;;;;5.60;5.60;;;;;27.36;28.62;100769.75;5091682;27;45543;-65
2022/07/28 11:04:06;;;;;;;;;4.00;3.50;;;;;27.16;29.58;100765.91;5096710;27;45802;-63
2022/07/28 11:06:38;;;;;;;;;5.00;3.75;;;;;27.28;28.97;100762.50;5078845;27;45496;-63
2022/07/28 11:09:16;;;;;;;;;2.80;2.80;;;;;27.29;29.34;100777.00;5097224;27;45394;-64
2022/07/28 11:11:43;;;;;;;;;3.40;3.40;;;;;27.37;29.17;100776.91;5097485;27;45328;-63
2022/07/28 11:14:42;;;;;;;;;2.00;2.00;;;;;27.51;29.29;100769.72;5097261;27;45320;-62
2022/07/28 11:17:07;;;;;;;;;4.20;2.40;;;;;27.43;28.57;100780.75;5096407;27;45430;-62
2022/07/28 11:19:45;;;;;;;;;1.00;1.00;;;;;27.44;29.64;100772.38;5096552;27;45292;-64
2022/07/28 11:22:16;;;;;;;;;14.50;10.00;;;;;27.45;29.71;100770.47;5097472;27;45293;-64
2022/07/28 11:24:56;;;;;;;;;2.80;2.80;;;;;27.48;29.57;100761.94;5097146;27;45984;-64
2022/07/28 11:27:48;;;;;;;;;1.20;1.20;;;;;27.53;30.10;100763.03;5096884;27;45304;-64
2022/07/28 11:30:31;;;;;;;;;6.40;5.00;;;;;27.58;29.60;100763.28;5097504;27;45270;-64